sensor_id;sensor_type;location;lat;lon;timestamp;pressure;altitude;pressure_sealevel;temperature;humidity
46944;BME280;32678;43.852;25.952;2023-04-24T00:04:22;100917.47;;;16.18;47.18
46944;BME280;32678;43.852;25.952;2023-04-24T00:09:22;100919.16;;;16.52;47.07
46944;BME280;32678;43.852;25.952;2023-04-24T00:14:20;100911.00;;;16.72;46.56
46944;BME280;32678;43.852;25.952;2023-04-24T00:19:17;100915.63;;;16.69;47.13
46944;BME280;32678;43.852;25.952;2023-04-24T00:24:17;100910.41;;;16.83;46.49
46944;BME280;32678;43.852;25.952;2023-04-24T00:29:14;100903.06;;;16.88;45.26
46944;BME280;32678;43.852;25.952;2023-04-24T00:34:11;100908.28;;;16.89;44.55
46944;BME280;32678;43.852;25.952;2023-04-24T00:39:08;100901.94;;;16.92;43.01
46944;BME280;32678;43.852;25.952;2023-04-24T00:44:05;100899.56;;;16.72;44.14
46944;BME280;32678;43.852;25.952;2023-04-24T00:49:02;100892.09;;;16.31;43.74
46944;BME280;32678;43.852;25.952;2023-04-24T00:53:59;100887.31;;;16.22;43.72
46944;BME280;32678;43.852;25.952;2023-04-24T00:58:57;100889.06;;;16.06;44.04
46944;BME280;32678;43.852;25.952;2023-04-24T01:03:54;100865.75;;;16.13;44.29
46944;BME280;32678;43.852;25.952;2023-04-24T01:08:52;100886.44;;;16.22;44.86
46944;BME280;32678;43.852;25.952;2023-04-24T01:13:49;100881.88;;;15.92;43.76
46944;BME280;32678;43.852;25.952;2023-04-24T01:18:46;100878.63;;;16.03;46.16
46944;BME280;32678;43.852;25.952;2023-04-24T01:23:43;100878.78;;;16.17;44.38
46944;BME280;32678;43.852;25.952;2023-04-24T01:28:40;100874.06;;;16.38;45.14
46944;BME280;32678;43.852;25.952;2023-04-24T01:33:37;100868.44;;;16.44;45.70
46944;BME280;32678;43.852;25.952;2023-04-24T01:38:34;100863.00;;;16.31;47.02
46944;BME280;32678;43.852;25.952;2023-04-24T01:43:31;100855.81;;;16.33;46.76
46944;BME280;32678;43.852;25.952;2023-04-24T01:48:28;100852.56;;;16.44;44.84
46944;BME280;32678;43.852;25.952;2023-04-24T01:53:26;100847.63;;;16.54;44.34
46944;BME280;32678;43.852;25.952;2023-04-24T01:58:22;100842.16;;;16.41;42.82
46944;BME280;32678;43.852;25.952;2023-04-24T02:03:20;100845.84;;;15.90;43.04
46944;BME280;32678;43.852;25.952;2023-04-24T02:08:18;100843.22;;;15.57;43.71
46944;BME280;32678;43.852;25.952;2023-04-24T02:13:14;100842.53;;;15.53;45.31
46944;BME280;32678;43.852;25.952;2023-04-24T02:18:11;100829.44;;;15.33;44.56
46944;BME280;32678;43.852;25.952;2023-04-24T02:23:09;100825.94;;;14.98;45.73
46944;BME280;32678;43.852;25.952;2023-04-24T02:28:10;100819.19;;;14.76;46.01
46944;BME280;32678;43.852;25.952;2023-04-24T02:33:06;100812.69;;;14.64;46.52
46944;BME280;32678;43.852;25.952;2023-04-24T02:38:06;100805.31;;;14.35;47.32
46944;BME280;32678;43.852;25.952;2023-04-24T02:43:03;100810.16;;;14.25;47.92
46944;BME280;32678;43.852;25.952;2023-04-24T02:48:00;100827.97;;;14.57;51.28
46944;BME280;32678;43.852;25.952;2023-04-24T02:52:59;100823.13;;;14.84;52.46
46944;BME280;32678;43.852;25.952;2023-04-24T02:57:56;100818.88;;;14.99;49.10
46944;BME280;32678;43.852;25.952;2023-04-24T03:02:54;100817.38;;;15.10;48.91
46944;BME280;32678;43.852;25.952;2023-04-24T03:07:53;100820.56;;;14.83;49.65
46944;BME280;32678;43.852;25.952;2023-04-24T03:12:50;100829.78;;;14.74;50.18
46944;BME280;32678;43.852;25.952;2023-04-24T03:17:47;100835.34;;;15.04;49.49
46944;BME280;32678;43.852;25.952;2023-04-24T03:22:45;100826.41;;;15.41;48.89
46944;BME280;32678;43.852;25.952;2023-04-24T03:27:41;100822.50;;;15.65;48.15
46944;BME280;32678;43.852;25.952;2023-04-24T03:32:49;100800.00;;;15.74;47.65
46944;BME280;32678;43.852;25.952;2023-04-24T03:37:52;100832.06;;;16.00;47.00
46944;BME280;32678;43.852;25.952;2023-04-24T03:43:09;100835.91;;;16.11;46.62
46944;BME280;32678;43.852;25.952;2023-04-24T03:48:06;100834.63;;;16.18;48.09
46944;BME280;32678;43.852;25.952;2023-04-24T03:53:04;100850.84;;;16.12;47.98
46944;BME280;32678;43.852;25.952;2023-04-24T03:58:06;100844.84;;;16.08;47.97
46944;BME280;32678;43.852;25.952;2023-04-24T04:03:03;100848.66;;;15.54;48.24
46944;BME280;32678;43.852;25.952;2023-04-24T04:08:01;100841.47;;;15.22;49.43
46944;BME280;32678;43.852;25.952;2023-04-24T04:12:58;100850.47;;;15.69;48.66
46944;BME280;32678;43.852;25.952;2023-04-24T04:17:56;100845.25;;;15.85;48.03
46944;BME280;32678;43.852;25.952;2023-04-24T04:22:53;100851.00;;;15.93;47.91
46944;BME280;32678;43.852;25.952;2023-04-24T04:28:04;100853.03;;;16.03;48.45
46944;BME280;32678;43.852;25.952;2023-04-24T04:33:00;100846.81;;;16.04;48.55
46944;BME280;32678;43.852;25.952;2023-04-24T04:37:57;100843.41;;;15.35;50.17
46944;BME280;32678;43.852;25.952;2023-04-24T04:43:31;100847.31;;;15.28;50.96
46944;BME280;32678;43.852;25.952;2023-04-24T04:48:28;100852.44;;;14.42;53.56
46944;BME280;32678;43.852;25.952;2023-04-24T04:53:29;100852.81;;;14.89;53.25
46944;BME280;32678;43.852;25.952;2023-04-24T04:58:26;100847.53;;;15.41;52.28
46944;BME280;32678;43.852;25.952;2023-04-24T05:03:28;100845.31;;;15.83;51.44
46944;BME280;32678;43.852;25.952;2023-04-24T05:08:32;100849.22;;;16.09;50.71
46944;BME280;32678;43.852;25.952;2023-04-24T05:13:32;100846.16;;;16.17;49.36
46944;BME280;32678;43.852;25.952;2023-04-24T05:18:52;100862.28;;;16.28;50.23
46944;BME280;32678;43.852;25.952;2023-04-24T05:23:54;100852.84;;;16.39;49.07
46944;BME280;32678;43.852;25.952;2023-04-24T05:29:04;100845.75;;;16.56;49.80
46944;BME280;32678;43.852;25.952;2023-04-24T05:34:04;100846.13;;;16.65;48.72
46944;BME280;32678;43.852;25.952;2023-04-24T05:39:02;100848.06;;;16.62;50.57
46944;BME280;32678;43.852;25.952;2023-04-24T05:44:03;100821.56;;;16.77;50.54
46944;BME280;32678;43.852;25.952;2023-04-24T05:49:01;100834.00;;;16.91;49.70
46944;BME280;32678;43.852;25.952;2023-04-24T05:53:59;100840.75;;;16.97;48.65
46944;BME280;32678;43.852;25.952;2023-04-24T05:58:56;100835.72;;;17.22;49.15
46944;BME280;32678;43.852;25.952;2023-04-24T06:03:53;100842.59;;;17.40;48.63
46944;BME280;32678;43.852;25.952;2023-04-24T06:08:53;100825.88;;;17.54;47.97
46944;BME280;32678;43.852;25.952;2023-04-24T06:13:52;100832.94;;;17.69;46.98
46944;BME280;32678;43.852;25.952;2023-04-24T06:19:07;100817.47;;;17.61;46.77
46944;BME280;32678;43.852;25.952;2023-04-24T06:24:05;100842.97;;;17.92;46.24
46944;BME280;32678;43.852;25.952;2023-04-24T06:40:09;100846.53;;;18.34;45.29
46944;BME280;32678;43.852;25.952;2023-04-24T06:46:08;100852.97;;;18.30;45.07
46944;BME280;32678;43.852;25.952;2023-04-24T06:51:58;100854.59;;;18.18;44.45
46944;BME280;32678;43.852;25.952;2023-04-24T07:03:14;100845.91;;;18.02;44.89
46944;BME280;32678;43.852;25.952;2023-04-24T07:08:14;100836.31;;;18.13;45.02
46944;BME280;32678;43.852;25.952;2023-04-24T07:13:21;100838.66;;;18.18;44.47
46944;BME280;32678;43.852;25.952;2023-04-24T07:18:25;100841.72;;;18.26;43.98
46944;BME280;32678;43.852;25.952;2023-04-24T07:23:29;100847.88;;;18.27;44.38
46944;BME280;32678;43.852;25.952;2023-04-24T07:28:28;100842.06;;;18.34;44.22
46944;BME280;32678;43.852;25.952;2023-04-24T07:33:31;100843.38;;;18.55;44.37
46944;BME280;32678;43.852;25.952;2023-04-24T07:38:31;100843.91;;;18.75;43.85
46944;BME280;32678;43.852;25.952;2023-04-24T08:47:37;100807.97;;;20.22;41.48
46944;BME280;32678;43.852;25.952;2023-04-24T08:52:34;100799.75;;;20.25;41.20
46944;BME280;32678;43.852;25.952;2023-04-24T08:57:31;100801.66;;;20.36;41.42
46944;BME280;32678;43.852;25.952;2023-04-24T09:02:29;100795.66;;;20.45;41.06
46944;BME280;32678;43.852;25.952;2023-04-24T09:07:29;100788.72;;;20.55;40.81
46944;BME280;32678;43.852;25.952;2023-04-24T09:12:28;100778.22;;;20.65;40.56
46944;BME280;32678;43.852;25.952;2023-04-24T09:17:25;100779.78;;;20.67;40.33
46944;BME280;32678;43.852;25.952;2023-04-24T09:22:25;100771.00;;;20.78;40.63
46944;BME280;32678;43.852;25.952;2023-04-24T09:32:39;100757.72;;;20.89;39.29
46944;BME280;32678;43.852;25.952;2023-04-24T09:37:38;100757.03;;;20.98;40.17
46944;BME280;32678;43.852;25.952;2023-04-24T09:42:35;100750.75;;;21.10;39.45
46944;BME280;32678;43.852;25.952;2023-04-24T09:47:35;100754.91;;;21.14;38.61
46944;BME280;32678;43.852;25.952;2023-04-24T09:52:34;100757.13;;;21.21;38.40
46944;BME280;32678;43.852;25.952;2023-04-24T09:57:31;100749.00;;;21.22;38.50
46944;BME280;32678;43.852;25.952;2023-04-24T10:02:31;100741.13;;;21.32;38.90
46944;BME280;32678;43.852;25.952;2023-04-24T10:07:28;100738.72;;;21.40;38.57
46944;BME280;32678;43.852;25.952;2023-04-24T10:12:26;100735.81;;;21.43;38.17
46944;BME280;32678;43.852;25.952;2023-04-24T10:17:25;100727.91;;;21.41;36.84
46944;BME280;32678;43.852;25.952;2023-04-24T10:22:22;100720.78;;;21.53;36.99
46944;BME280;32678;43.852;25.952;2023-04-24T10:27:24;100721.25;;;21.58;36.46
46944;BME280;32678;43.852;25.952;2023-04-24T10:32:24;100716.03;;;21.56;35.64
46944;BME280;32678;43.852;25.952;2023-04-24T10:37:22;100715.94;;;21.58;36.06
46944;BME280;32678;43.852;25.952;2023-04-24T10:42:24;100713.00;;;21.61;35.42
46944;BME280;32678;43.852;25.952;2023-04-24T10:47:25;100704.53;;;21.67;34.73
46944;BME280;32678;43.852;25.952;2023-04-24T10:58:16;100699.78;;;21.82;35.09
46944;BME280;32678;43.852;25.952;2023-04-24T11:03:24;100694.91;;;21.87;35.16
46944;BME280;32678;43.852;25.952;2023-04-24T11:08:28;100696.00;;;21.95;33.92
46944;BME280;32678;43.852;25.952;2023-04-24T11:18:49;100686.63;;;22.12;34.27
46944;BME280;32678;43.852;25.952;2023-04-24T11:23:49;100680.47;;;21.89;34.31
46944;BME280;32678;43.852;25.952;2023-04-24T11:28:52;100678.66;;;22.01;34.79
46944;BME280;32678;43.852;25.952;2023-04-24T11:34:06;100681.31;;;22.01;35.03
46944;BME280;32678;43.852;25.952;2023-04-24T11:39:06;100672.47;;;22.00;35.20
46944;BME280;32678;43.852;25.952;2023-04-24T11:44:05;100676.53;;;22.16;34.24
46944;BME280;32678;43.852;25.952;2023-04-24T11:49:09;100664.69;;;22.09;35.11
46944;BME280;32678;43.852;25.952;2023-04-24T11:54:10;100660.72;;;22.24;34.73
46944;BME280;32678;43.852;25.952;2023-04-24T11:59:09;100655.84;;;22.08;35.12
46944;BME280;32678;43.852;25.952;2023-04-24T12:04:07;100649.47;;;22.20;35.20
46944;BME280;32678;43.852;25.952;2023-04-24T12:09:04;100648.56;;;22.31;35.43
46944;BME280;32678;43.852;25.952;2023-04-24T12:14:13;100627.00;;;22.43;36.09
46944;BME280;32678;43.852;25.952;2023-04-24T12:19:11;100627.00;;;22.23;36.60
46944;BME280;32678;43.852;25.952;2023-04-24T12:24:10;100618.53;;;22.38;35.33
46944;BME280;32678;43.852;25.952;2023-04-24T12:29:08;100615.75;;;22.40;36.42
46944;BME280;32678;43.852;25.952;2023-04-24T12:34:17;100599.00;;;22.17;36.91
46944;BME280;32678;43.852;25.952;2023-04-24T12:39:15;100604.94;;;22.41;36.96
46944;BME280;32678;43.852;25.952;2023-04-24T12:44:19;100596.59;;;22.35;36.94
46944;BME280;32678;43.852;25.952;2023-04-24T12:49:18;100583.44;;;22.43;36.83
46944;BME280;32678;43.852;25.952;2023-04-24T12:54:15;100582.44;;;22.44;37.52
46944;BME280;32678;43.852;25.952;2023-04-24T12:59:25;100574.38;;;22.34;37.93
46944;BME280;32678;43.852;25.952;2023-04-24T13:04:50;100571.06;;;22.42;39.04
46944;BME280;32678;43.852;25.952;2023-04-24T13:09:50;100566.16;;;22.47;39.36
46944;BME280;32678;43.852;25.952;2023-04-24T13:14:47;100549.94;;;22.39;38.47
46944;BME280;32678;43.852;25.952;2023-04-24T13:19:49;100542.22;;;22.66;36.60
46944;BME280;32678;43.852;25.952;2023-04-24T13:24:46;100561.44;;;22.71;36.23
46944;BME280;32678;43.852;25.952;2023-04-24T13:29:45;100546.69;;;22.56;36.02
46944;BME280;32678;43.852;25.952;2023-04-24T13:34:43;100541.50;;;22.64;36.27
46944;BME280;32678;43.852;25.952;2023-04-24T13:39:44;100544.63;;;22.69;36.32
46944;BME280;32678;43.852;25.952;2023-04-24T13:44:41;100541.41;;;22.96;35.67
46944;BME280;32678;43.852;25.952;2023-04-24T13:49:41;100537.81;;;22.76;36.28
46944;BME280;32678;43.852;25.952;2023-04-24T13:54:38;100539.28;;;22.90;35.17
46944;BME280;32678;43.852;25.952;2023-04-24T13:59:36;100533.19;;;22.58;36.13
46944;BME280;32678;43.852;25.952;2023-04-24T14:04:37;100528.38;;;22.52;36.34
46944;BME280;32678;43.852;25.952;2023-04-24T14:09:35;100523.31;;;22.58;36.09
46944;BME280;32678;43.852;25.952;2023-04-24T14:14:34;100522.06;;;22.53;36.62
46944;BME280;32678;43.852;25.952;2023-04-24T14:19:32;100511.44;;;22.41;37.94
46944;BME280;32678;43.852;25.952;2023-04-24T14:24:29;100517.13;;;22.27;38.19
46944;BME280;32678;43.852;25.952;2023-04-24T14:29:26;100506.66;;;22.45;37.94
46944;BME280;32678;43.852;25.952;2023-04-24T14:34:26;100508.44;;;22.35;38.85
46944;BME280;32678;43.852;25.952;2023-04-24T14:39:24;100503.03;;;22.46;38.34
46944;BME280;32678;43.852;25.952;2023-04-24T14:44:21;100499.50;;;22.45;38.80
46944;BME280;32678;43.852;25.952;2023-04-24T14:49:18;100494.63;;;22.30;38.34
46944;BME280;32678;43.852;25.952;2023-04-24T14:54:15;100493.13;;;22.37;38.45
46944;BME280;32678;43.852;25.952;2023-04-24T14:59:13;100495.66;;;22.38;39.07
46944;BME280;32678;43.852;25.952;2023-04-24T15:04:11;100485.56;;;22.42;39.15
46944;BME280;32678;43.852;25.952;2023-04-24T15:09:17;100482.69;;;22.34;38.66
46944;BME280;32678;43.852;25.952;2023-04-24T15:14:15;100480.44;;;22.29;39.18
46944;BME280;32678;43.852;25.952;2023-04-24T15:19:12;100475.53;;;22.34;39.23
46944;BME280;32678;43.852;25.952;2023-04-24T15:24:11;100472.81;;;22.25;39.12
46944;BME280;32678;43.852;25.952;2023-04-24T15:29:08;100467.34;;;22.06;39.44
46944;BME280;32678;43.852;25.952;2023-04-24T15:34:05;100462.91;;;22.16;38.85
46944;BME280;32678;43.852;25.952;2023-04-24T15:39:02;100458.75;;;22.23;39.03
46944;BME280;32678;43.852;25.952;2023-04-24T15:44:04;100448.47;;;22.18;39.15
46944;BME280;32678;43.852;25.952;2023-04-24T15:49:03;100444.16;;;22.27;39.06
46944;BME280;32678;43.852;25.952;2023-04-24T15:54:01;100437.56;;;22.31;38.97
46944;BME280;32678;43.852;25.952;2023-04-24T15:58:59;100435.47;;;22.34;39.45
46944;BME280;32678;43.852;25.952;2023-04-24T16:03:56;100427.63;;;22.33;39.69
46944;BME280;32678;43.852;25.952;2023-04-24T16:08:53;100422.53;;;22.30;39.81
46944;BME280;32678;43.852;25.952;2023-04-24T16:13:54;100421.53;;;22.31;39.58
46944;BME280;32678;43.852;25.952;2023-04-24T16:18:54;100422.41;;;22.31;39.86
46944;BME280;32678;43.852;25.952;2023-04-24T16:23:51;100424.94;;;22.33;39.91
46944;BME280;32678;43.852;25.952;2023-04-24T16:28:48;100422.00;;;22.36;39.82
46944;BME280;32678;43.852;25.952;2023-04-24T16:33:46;100414.81;;;22.36;39.73
46944;BME280;32678;43.852;25.952;2023-04-24T16:38:42;100409.47;;;22.36;39.87
46944;BME280;32678;43.852;25.952;2023-04-24T16:43:39;100414.94;;;22.35;40.17
46944;BME280;32678;43.852;25.952;2023-04-24T16:48:36;100409.03;;;22.31;40.05
46944;BME280;32678;43.852;25.952;2023-04-24T16:53:34;100407.88;;;22.24;40.68
46944;BME280;32678;43.852;25.952;2023-04-24T16:58:30;100412.50;;;22.22;39.70
46944;BME280;32678;43.852;25.952;2023-04-24T17:03:27;100412.19;;;22.16;40.29
46944;BME280;32678;43.852;25.952;2023-04-24T17:08:26;100408.66;;;22.15;40.86
46944;BME280;32678;43.852;25.952;2023-04-24T17:13:25;100408.41;;;22.18;40.97
46944;BME280;32678;43.852;25.952;2023-04-24T17:18:22;100419.75;;;22.11;42.48
46944;BME280;32678;43.852;25.952;2023-04-24T17:23:19;100424.63;;;22.06;42.69
46944;BME280;32678;43.852;25.952;2023-04-24T17:28:19;100422.69;;;22.08;40.23
46944;BME280;32678;43.852;25.952;2023-04-24T17:39:25;100437.16;;;21.21;42.41
46944;BME280;32678;43.852;25.952;2023-04-24T17:44:22;100429.34;;;20.74;43.90
46944;BME280;32678;43.852;25.952;2023-04-24T17:49:19;100402.84;;;20.51;44.80
46944;BME280;32678;43.852;25.952;2023-04-24T17:54:15;100426.44;;;20.22;45.59
46944;BME280;32678;43.852;25.952;2023-04-24T17:59:14;100431.50;;;20.03;46.00
46944;BME280;32678;43.852;25.952;2023-04-24T18:04:11;100440.06;;;20.06;46.59
46944;BME280;32678;43.852;25.952;2023-04-24T18:09:09;100443.34;;;19.99;47.29
46944;BME280;32678;43.852;25.952;2023-04-24T18:14:07;100446.97;;;20.20;47.11
46944;BME280;32678;43.852;25.952;2023-04-24T18:19:05;100454.75;;;20.23;47.45
46944;BME280;32678;43.852;25.952;2023-04-24T18:24:01;100460.25;;;19.98;47.60
46944;BME280;32678;43.852;25.952;2023-04-24T18:28:58;100486.19;;;20.29;46.09
46944;BME280;32678;43.852;25.952;2023-04-24T18:33:55;100480.41;;;19.89;46.61
46944;BME280;32678;43.852;25.952;2023-04-24T18:38:53;100491.22;;;19.40;48.96
46944;BME280;32678;43.852;25.952;2023-04-24T18:43:50;100483.09;;;19.41;48.97
46944;BME280;32678;43.852;25.952;2023-04-24T18:48:47;100472.38;;;19.43;49.46
46944;BME280;32678;43.852;25.952;2023-04-24T18:53:44;100463.38;;;19.33;50.31
46944;BME280;32678;43.852;25.952;2023-04-24T18:58:42;100470.50;;;19.32;50.82
46944;BME280;32678;43.852;25.952;2023-04-24T19:03:41;100455.66;;;19.54;50.12
46944;BME280;32678;43.852;25.952;2023-04-24T19:08:38;100457.81;;;19.49;50.82
46944;BME280;32678;43.852;25.952;2023-04-24T19:13:37;100453.34;;;19.49;50.75
46944;BME280;32678;43.852;25.952;2023-04-24T19:18:35;100452.75;;;19.57;50.66
46944;BME280;32678;43.852;25.952;2023-04-24T19:23:31;100427.09;;;19.56;50.31
46944;BME280;32678;43.852;25.952;2023-04-24T19:28:31;100449.34;;;19.89;49.68
46944;BME280;32678;43.852;25.952;2023-04-24T19:33:34;100453.81;;;19.78;50.37
46944;BME280;32678;43.852;25.952;2023-04-24T19:38:34;100464.69;;;19.51;51.87
46944;BME280;32678;43.852;25.952;2023-04-24T19:43:31;100468.00;;;19.66;52.28
46944;BME280;32678;43.852;25.952;2023-04-24T19:48:28;100470.38;;;19.81;52.64
46944;BME280;32678;43.852;25.952;2023-04-24T19:53:27;100471.31;;;19.80;52.13
46944;BME280;32678;43.852;25.952;2023-04-24T19:58:26;100467.25;;;19.53;53.83
46944;BME280;32678;43.852;25.952;2023-04-24T20:03:25;100466.44;;;19.39;54.66
46944;BME280;32678;43.852;25.952;2023-04-24T20:08:32;100465.34;;;19.18;55.43
46944;BME280;32678;43.852;25.952;2023-04-24T20:13:29;100486.34;;;19.34;56.20
46944;BME280;32678;43.852;25.952;2023-04-24T20:18:27;100519.00;;;19.23;57.81
46944;BME280;32678;43.852;25.952;2023-04-24T20:23:24;100509.00;;;18.40;60.99
46944;BME280;32678;43.852;25.952;2023-04-24T20:28:24;100502.53;;;18.31;61.26
46944;BME280;32678;43.852;25.952;2023-04-24T20:33:22;100487.94;;;17.99;62.03
46944;BME280;32678;43.852;25.952;2023-04-24T20:38:18;100500.00;;;18.17;61.06
46944;BME280;32678;43.852;25.952;2023-04-24T20:43:17;100494.88;;;18.14;59.79
46944;BME280;32678;43.852;25.952;2023-04-24T20:48:14;100501.22;;;17.99;58.21
46944;BME280;32678;43.852;25.952;2023-04-24T20:53:12;100487.41;;;17.94;57.78
46944;BME280;32678;43.852;25.952;2023-04-24T20:58:08;100484.75;;;17.94;58.15
46944;BME280;32678;43.852;25.952;2023-04-24T21:03:07;100475.97;;;17.93;60.39
46944;BME280;32678;43.852;25.952;2023-04-24T21:08:04;100479.44;;;17.94;62.38
46944;BME280;32678;43.852;25.952;2023-04-24T21:13:02;100467.78;;;17.84;64.45
46944;BME280;32678;43.852;25.952;2023-04-24T21:17:59;100467.97;;;17.81;65.68
46944;BME280;32678;43.852;25.952;2023-04-24T21:22:55;100444.34;;;17.51;67.64
46944;BME280;32678;43.852;25.952;2023-04-24T21:27:52;100457.47;;;17.40;69.69
46944;BME280;32678;43.852;25.952;2023-04-24T21:32:50;100461.59;;;17.17;71.27
46944;BME280;32678;43.852;25.952;2023-04-24T21:37:47;100463.00;;;17.22;71.86
46944;BME280;32678;43.852;25.952;2023-04-24T21:42:44;100462.69;;;17.27;71.52
46944;BME280;32678;43.852;25.952;2023-04-24T21:47:41;100460.59;;;17.32;70.98
46944;BME280;32678;43.852;25.952;2023-04-24T21:52:38;100457.19;;;17.30;71.06
46944;BME280;32678;43.852;25.952;2023-04-24T21:57:35;100461.69;;;17.42;70.59
46944;BME280;32678;43.852;25.952;2023-04-24T22:02:32;100456.00;;;17.48;70.33
46944;BME280;32678;43.852;25.952;2023-04-24T22:07:29;100454.94;;;17.51;70.22
46944;BME280;32678;43.852;25.952;2023-04-24T22:12:27;100451.41;;;17.64;69.02
46944;BME280;32678;43.852;25.952;2023-04-24T22:17:24;100442.09;;;17.71;69.04
46944;BME280;32678;43.852;25.952;2023-04-24T22:22:21;100425.59;;;17.54;70.36
46944;BME280;32678;43.852;25.952;2023-04-24T22:27:18;100419.31;;;17.55;69.89
46944;BME280;32678;43.852;25.952;2023-04-24T22:32:15;100400.28;;;17.62;69.13
46944;BME280;32678;43.852;25.952;2023-04-24T22:37:13;100397.84;;;17.59;68.83
46944;BME280;32678;43.852;25.952;2023-04-24T22:42:10;100402.00;;;17.63;68.68
46944;BME280;32678;43.852;25.952;2023-04-24T22:47:06;100406.44;;;17.75;68.57
46944;BME280;32678;43.852;25.952;2023-04-24T22:52:04;100396.19;;;17.96;68.15
46944;BME280;32678;43.852;25.952;2023-04-24T22:57:01;100395.44;;;18.19;66.92
46944;BME280;32678;43.852;25.952;2023-04-24T23:01:58;100383.22;;;18.04;67.48
46944;BME280;32678;43.852;25.952;2023-04-24T23:06:56;100376.44;;;17.75;67.81
46944;BME280;32678;43.852;25.952;2023-04-24T23:11:54;100367.31;;;17.79;69.11
46944;BME280;32678;43.852;25.952;2023-04-24T23:16:50;100347.97;;;17.52;70.22
46944;BME280;32678;43.852;25.952;2023-04-24T23:21:48;100337.00;;;17.31;71.91
46944;BME280;32678;43.852;25.952;2023-04-24T23:26:45;100362.88;;;17.27;73.01
46944;BME280;32678;43.852;25.952;2023-04-24T23:31:42;100381.31;;;17.29;72.86
46944;BME280;32678;43.852;25.952;2023-04-24T23:36:39;100382.22;;;17.15;75.10
46944;BME280;32678;43.852;25.952;2023-04-24T23:41:36;100381.84;;;16.95;76.88
46944;BME280;32678;43.852;25.952;2023-04-24T23:46:33;100380.19;;;17.06;76.49
46944;BME280;32678;43.852;25.952;2023-04-24T23:51:31;100371.00;;;16.85;77.45
46944;BME280;32678;43.852;25.952;2023-04-24T23:56:28;100372.09;;;16.95;76.41
